Saint Louis, Missouri
Traffic Map
Current Weather Conditions
Saint Louis, Missouri
Clear
Clear
20°
Feels Like: 20°
Wind Chill: 20° Ceiling: Unl
Heat Index: 20° Visibility: 10mi
Dew Point: Wind: 6mph
Humidity: 43% Direction: 10° (N)
Pressure: 30.18in Gusts: 0mph
Raw Report DataKCPS 260353Z 01005KT 10SM CLR 20/07 A3018 RMK AO2 SLP216 T02000072
Traffic Incident Summary
Active as of:
Severity:
Category:
InformationThere was an issue retrieving the traffic information for this location. Please try a different location or try again shortly.
Advertisements
Track Severe Weather on mobile